Time;durP1;ratioP1;P1;durP2;ratioP2;P2;SDS_P1;SDS_P2;PMS_P1;PMS_P2;Temp;Humidity;BMP_temperature;BMP_pressure;BME280_temperature;BME280_humidity;BME280_pressure;Samples;Min_cycle;Max_cycle;Signal;HPM_P1;HPM_P2
2022/05/23 00:02:27;;;;;;;7.78;2.25;;;;;;;19.06;46.52;100884.69;5200978;28;21661;-48
2022/05/23 00:04:59;;;;;;;8.93;2.23;;;;;;;19.07;46.56;100885.53;5199358;28;20420;-45
2022/05/23 00:07:35;;;;;;;7.07;2.25;;;;;;;19.04;46.38;100870.69;5200686;28;20425;-48
2022/05/23 00:10:12;;;;;;;9.30;2.53;;;;;;;19.03;46.46;100868.22;5197937;28;20616;-47
2022/05/23 00:12:45;;;;;;;9.27;2.38;;;;;;;19.02;46.43;100866.59;5201176;28;20429;-47
2022/05/23 00:15:21;;;;;;;5.57;2.30;;;;;;;18.99;46.41;100862.47;5202355;28;20405;-48
2022/05/23 00:17:54;;;;;;;7.50;2.20;;;;;;;18.97;46.44;100859.16;5179719;28;20431;-49
2022/05/23 00:20:27;;;;;;;8.88;2.33;;;;;;;18.86;46.46;100846.38;5167845;28;20487;-49
2022/05/23 00:22:59;;;;;;;8.55;2.17;;;;;;;18.95;46.32;100849.69;5171046;28;20444;-47
2022/05/23 00:25:32;;;;;;;5.65;2.20;;;;;;;18.91;46.36;100843.09;5175294;28;20552;-47
2022/05/23 00:28:05;;;;;;;6.60;2.42;;;;;;;18.86;46.36;100835.66;5201352;28;21180;-47
2022/05/23 00:30:39;;;;;;;3.92;1.80;;;;;;;18.87;46.35;100840.00;5202622;28;21193;-47
2022/05/23 00:36:01;;;;;;;7.82;2.72;;;;;;;18.71;46.59;100822.47;5198963;28;20509;-48
2022/05/23 00:38:34;;;;;;;6.43;2.50;;;;;;;18.81;46.35;100828.25;5198087;28;20486;-47
2022/05/23 00:44:08;;;;;;;6.90;2.13;;;;;;;18.75;46.50;100813.03;5198298;28;20469;-45
2022/05/23 00:46:56;;;;;;;7.07;2.15;;;;;;;18.61;46.57;100795.28;5201690;28;20496;-45
2022/05/23 00:49:34;;;;;;;4.38;2.08;;;;;;;18.57;46.57;100794.84;5197721;28;20923;-48
2022/05/23 00:52:11;;;;;;;8.02;2.80;;;;;;;18.59;46.53;100792.00;5197813;28;20429;-46
2022/05/23 00:54:49;;;;;;;6.22;2.45;;;;;;;18.54;46.68;100791.78;5202558;28;20766;-46
2022/05/23 00:57:44;;;;;;;8.77;2.65;;;;;;;18.49;46.61;100804.91;5167238;27;1974987;-45
2022/05/23 01:00:18;;;;;;;8.07;2.92;;;;;;;18.51;46.94;100790.31;5193607;28;20528;-49
2022/05/23 01:02:56;;;;;;;4.63;2.45;;;;;;;18.38;47.04;100769.72;5210402;28;20500;-40
2022/05/23 01:05:29;;;;;;;9.57;3.35;;;;;;;18.45;47.02;100785.78;5215440;28;20440;-45
2022/05/23 01:08:03;;;;;;;7.80;2.70;;;;;;;18.42;47.12;100792.34;5211034;28;20866;-47
2022/05/23 01:10:38;;;;;;;4.90;2.70;;;;;;;17.75;47.41;100678.28;5214844;28;20430;-49
2022/05/23 01:13:12;;;;;;;5.65;2.78;;;;;;;18.39;47.36;100776.72;5211742;28;20924;-48
2022/05/23 01:15:47;;;;;;;5.82;2.47;;;;;;;18.34;47.42;100767.69;5215666;28;20423;-50
2022/05/23 01:18:19;;;;;;;7.90;2.95;;;;;;;18.26;47.38;100752.63;5215663;28;20417;-51
2022/05/23 01:20:56;;;;;;;6.13;2.33;;;;;;;18.38;47.43;100769.72;5213461;28;20431;-49
2022/05/23 01:23:39;;;;;;;6.15;2.50;;;;;;;18.24;47.48;100738.66;5211508;28;20516;-45
2022/05/23 01:26:13;;;;;;;6.32;2.10;;;;;;;18.29;47.48;100754.91;5212177;28;20855;-46
2022/05/23 01:28:46;;;;;;;10.50;2.92;;;;;;;18.20;47.65;100746.25;5214552;28;20829;-45
2022/05/23 01:31:18;;;;;;;8.75;3.05;;;;;;;18.20;47.65;100746.25;5213441;28;20397;-48
2022/05/23 01:33:51;;;;;;;7.23;2.43;;;;;;;18.19;47.63;100749.13;5200348;28;20499;-44
2022/05/23 01:36:23;;;;;;;7.75;2.92;;;;;;;18.23;47.71;100755.72;5215720;28;20432;-48
2022/05/23 01:38:56;;;;;;;8.15;2.88;;;;;;;18.09;47.85;100733.50;5215574;28;20547;-51
2022/05/23 01:41:31;;;;;;;7.18;3.03;;;;;;;18.08;47.69;100742.50;5213571;28;20977;-50
2022/05/23 01:44:03;;;;;;;6.07;2.38;;;;;;;18.14;47.85;100757.75;5211663;28;20974;-48
2022/05/23 01:46:36;;;;;;;6.53;2.30;;;;;;;17.89;47.95;100722.72;5208882;28;20426;-48
2022/05/23 01:49:08;;;;;;;10.87;3.07;;;;;;;18.01;47.98;100747.03;5212665;28;20574;-45
2022/05/23 01:51:41;;;;;;;6.90;2.40;;;;;;;18.07;48.08;100761.44;5212014;28;20413;-45
2022/05/23 01:54:13;;;;;;;8.50;3.27;;;;;;;18.06;48.18;100752.59;5211988;28;20423;-48
2022/05/23 01:56:47;;;;;;;7.13;2.83;;;;;;;18.06;48.24;100754.44;5210808;28;20440;-49
2022/05/23 02:02:09;;;;;;;6.30;2.63;;;;;;;17.94;48.27;100747.00;5211708;28;20413;-49
2022/05/23 02:04:42;;;;;;;8.93;2.50;;;;;;;17.72;48.50;100706.22;5213946;28;20721;-47
2022/05/23 02:07:15;;;;;;;9.95;2.80;;;;;;;17.93;48.39;100745.38;5210224;28;20484;-45
2022/05/23 02:09:48;;;;;;;8.30;3.17;;;;;;;17.82;48.61;100735.25;5197568;28;21093;-45
2022/05/23 02:12:22;;;;;;;10.50;2.92;;;;;;;17.87;48.74;100740.81;5195764;28;20429;-43
2022/05/23 02:14:54;;;;;;;7.00;2.97;;;;;;;17.91;48.64;100739.38;5196090;28;20425;-47
2022/05/23 02:17:29;;;;;;;7.90;2.72;;;;;;;17.87;48.51;100735.47;5198125;28;20699;-48
2022/05/23 02:20:03;;;;;;;8.57;2.73;;;;;;;17.87;48.50;100724.78;5172971;22;20530;-45
2022/05/23 02:22:38;;;;;;;9.48;3.63;;;;;;;17.84;48.58;100727.88;5134981;28;21318;-48
2022/05/23 02:25:11;;;;;;;11.60;2.70;;;;;;;17.39;48.49;100658.00;5138166;28;20468;-46
2022/05/23 02:27:45;;;;;;;8.82;3.00;;;;;;;17.85;48.49;100718.00;5134066;28;20778;-46
2022/05/23 02:30:18;;;;;;;8.15;3.00;;;;;;;17.84;48.59;100717.19;5125519;28;20420;-44
2022/05/23 02:32:51;;;;;;;5.47;2.45;;;;;;;17.66;48.47;100690.16;5125834;28;20717;-47
2022/05/23 02:35:24;;;;;;;7.72;3.17;;;;;;;17.80;48.28;100723.91;5136656;28;20499;-46
2022/05/23 02:38:17;;;;;;;5.63;2.42;;;;;;;17.83;48.41;100728.88;5130367;28;20426;-46
2022/05/23 02:40:49;;;;;;;10.07;3.03;;;;;;;17.77;48.49;100710.13;5127869;28;20435;-46
2022/05/23 02:43:23;;;;;;;9.83;3.37;;;;;;;17.77;48.60;100718.97;5119895;28;20507;-46
2022/05/23 02:45:55;;;;;;;9.25;3.45;;;;;;;17.78;48.47;100714.50;5134866;28;21037;-45
2022/05/23 02:48:28;;;;;;;11.32;2.95;;;;;;;17.73;48.45;100707.84;5137513;28;20442;-48
2022/05/23 02:51:00;;;;;;;6.88;3.30;;;;;;;17.77;48.42;100707.44;5128693;28;20428;-48
2022/05/23 02:53:33;;;;;;;8.35;3.28;;;;;;;17.74;48.48;100697.97;5121619;28;20431;-45
2022/05/23 02:56:05;;;;;;;8.32;3.80;;;;;;;17.67;48.44;100687.28;5125495;28;20468;-47
2022/05/23 02:58:41;;;;;;;8.57;3.07;;;;;;;17.68;48.60;100691.63;5127313;28;20557;-46
2022/05/23 03:01:14;;;;;;;6.03;3.40;;;;;;;17.69;48.60;100689.75;5122591;28;20511;-46
2022/05/23 03:03:45;;;;;;;7.57;3.22;;;;;;;17.61;48.52;100671.22;5139437;28;20435;-47
2022/05/23 03:06:20;;;;;;;8.05;3.22;;;;;;;17.67;48.61;100681.13;5130892;28;20810;-45
2022/05/23 03:08:53;;;;;;;12.07;3.30;;;;;;;17.68;48.52;100686.28;5122086;28;20523;-46
2022/05/23 03:11:27;;;;;;;9.80;3.50;;;;;;;17.67;48.60;100681.13;5124641;28;20507;-46
2022/05/23 03:14:01;;;;;;;8.07;3.22;;;;;;;17.68;48.58;100677.41;5133049;28;20545;-46
2022/05/23 03:16:34;;;;;;;9.07;3.37;;;;;;;17.64;48.80;100676.19;5123289;28;20919;-47
2022/05/23 03:19:06;;;;;;;7.50;3.13;;;;;;;17.66;48.68;100661.59;5129672;28;20435;-48
2022/05/23 03:27:15;;;;;;;9.38;3.80;;;;;;;17.60;48.76;100629.53;5152902;28;20411;-47
2022/05/23 03:29:55;;;;;;;9.80;3.93;;;;;;;17.67;48.89;100633.03;5142726;28;20922;-47
2022/05/23 03:32:27;;;;;;;6.95;3.47;;;;;;;17.57;48.91;100619.25;5149864;28;20535;-46
2022/05/23 03:35:00;;;;;;;12.15;3.92;;;;;;;17.55;48.82;100611.44;5137582;28;20430;-48
2022/05/23 03:37:32;;;;;;;8.50;3.80;;;;;;;17.64;48.89;100622.75;5156187;28;20449;-48
2022/05/23 03:40:07;;;;;;;9.70;3.45;;;;;;;17.44;49.11;100580.81;5153731;28;20430;-47
2022/05/23 03:42:49;;;;;;;6.95;3.35;;;;;;;17.57;48.98;100597.91;5136542;28;20436;-46
2022/05/23 03:45:23;;;;;;;8.43;3.08;;;;;;;17.60;48.95;100594.81;5149239;28;20435;-50
2022/05/23 03:47:57;;;;;;;10.00;3.83;;;;;;;17.61;49.06;100599.13;5155916;28;20441;-48
2022/05/23 03:50:32;;;;;;;9.60;3.30;;;;;;;17.39;48.98;100561.91;5151644;28;20451;-48
2022/05/23 03:53:07;;;;;;;12.57;3.15;;;;;;;17.33;49.39;100544.00;5139767;28;20521;-49
2022/05/23 03:55:39;;;;;;;9.18;3.00;;;;;;;17.46;49.20;100570.75;5144146;28;20454;-46
2022/05/23 03:58:12;;;;;;;8.52;3.33;;;;;;;16.92;49.40;100475.53;5143535;28;20498;-46
2022/05/23 04:00:49;;;;;;;7.93;3.93;;;;;;;17.52;49.23;100566.44;5147019;28;20560;-47
2022/05/23 04:03:21;;;;;;;9.02;3.40;;;;;;;17.36;49.49;100540.94;5151625;28;20445;-46
2022/05/23 04:05:54;;;;;;;6.03;3.58;;;;;;;17.46;49.49;100568.06;5137625;28;20544;-47
2022/05/23 04:08:26;;;;;;;8.23;3.40;;;;;;;17.42;49.45;100534.81;5138224;28;20550;-48
2022/05/23 04:10:59;;;;;;;11.52;3.67;;;;;;;17.41;49.71;100532.34;5143064;28;20898;-47
2022/05/23 04:13:32;;;;;;;9.13;3.17;;;;;;;17.51;49.67;100543.44;5145360;28;20434;-46
2022/05/23 04:16:06;;;;;;;9.77;3.88;;;;;;;17.54;49.72;100548.38;5149201;28;20575;-47
2022/05/23 04:18:39;;;;;;;8.25;3.80;;;;;;;17.58;49.84;100546.94;5146109;28;20518;-45
2022/05/23 04:21:12;;;;;;;8.00;2.80;;;;;;;17.56;49.60;100534.81;5129894;28;20414;-45
2022/05/23 04:23:44;;;;;;;5.03;2.60;;;;;;;17.64;49.71;100537.31;5125440;28;20637;-48
2022/05/23 04:26:17;;;;;;;7.80;3.50;;;;;;;17.66;49.73;100541.41;5131301;28;20423;-47
2022/05/23 04:28:49;;;;;;;7.97;3.95;;;;;;;17.62;49.67;100528.66;5125168;28;20871;-48
2022/05/23 04:31:23;;;;;;;7.38;3.53;;;;;;;17.69;49.84;100526.84;5125545;28;20767;-48
2022/05/23 04:36:46;;;;;;;7.32;3.30;;;;;;;17.64;49.98;100511.41;5125239;28;20415;-49
2022/05/23 04:39:18;;;;;;;9.33;3.00;;;;;;;17.74;49.78;100527.88;5128273;28;20567;-48
2022/05/23 04:41:51;;;;;;;9.13;3.75;;;;;;;17.88;50.04;100533.25;5118228;28;20410;-42
2022/05/23 04:44:23;;;;;;;8.55;3.38;;;;;;;17.98;50.08;100533.66;5120658;28;20509;-48
2022/05/23 04:50:00;;;;;;;8.73;3.35;;;;;;;18.19;49.98;100521.94;5071227;28;20705;-47
2022/05/23 04:52:32;;;;;;;12.55;4.00;;;;;;;18.07;49.77;100488.84;5117711;28;20474;-51
2022/05/23 04:55:06;;;;;;;9.13;3.58;;;;;;;18.34;49.97;100511.84;5133153;28;20447;-48
2022/05/23 04:57:40;;;;;;;7.28;3.83;;;;;;;18.33;49.94;100502.16;5134060;28;20541;-47
2022/05/23 05:00:18;;;;;;;6.65;3.50;;;;;;;18.35;50.08;100504.63;5124731;28;20416;-48
2022/05/23 05:02:52;;;;;;;7.28;3.90;;;;;;;18.30;50.09;100489.22;5123411;28;20902;-49
2022/05/23 05:05:24;;;;;;;8.55;3.78;;;;;;;18.44;50.03;100496.19;5127373;28;20552;-49
2022/05/23 05:07:57;;;;;;;7.17;3.27;;;;;;;18.37;50.10;100468.63;5123115;28;20521;-47
2022/05/23 05:10:33;;;;;;;10.87;4.00;;;;;;;18.50;50.26;100472.31;5130493;28;20436;-51
2022/05/23 05:13:06;;;;;;;7.00;3.38;;;;;;;18.65;49.87;100464.84;5128163;28;20475;-46
2022/05/23 05:15:39;;;;;;;10.13;3.90;;;;;;;19.05;49.86;100480.75;5130511;28;21580;-49
2022/05/23 05:18:13;;;;;;;10.63;3.57;;;;;;;19.57;49.43;100489.47;5120862;28;20456;-50
2022/05/23 05:20:45;;;;;;;9.43;3.55;;;;;;;20.40;48.61;100469.56;5130940;28;20426;-47
2022/05/23 05:23:18;;;;;;;8.55;3.45;;;;;;;21.29;47.46;100467.22;5140465;28;20413;-48
2022/05/23 05:25:53;;;;;;;8.98;2.95;;;;;;;22.25;46.46;100476.81;5145343;28;20895;-47
2022/05/23 05:28:26;;;;;;;8.43;3.35;;;;;;;22.80;46.01;100464.75;5141459;28;20942;-48
2022/05/23 05:31:04;;;;;;;11.73;3.75;;;;;;;22.91;45.60;100436.13;5132730;28;20444;-50
2022/05/23 05:33:43;;;;;;;9.50;3.13;;;;;;;23.54;44.98;100453.16;5132261;28;20430;-47
2022/05/23 05:36:20;;;;;;;9.43;3.05;;;;;;;23.86;44.34;100445.31;5128116;28;20926;-52
2022/05/23 05:38:57;;;;;;;10.53;3.27;;;;;;;24.16;44.08;100451.16;5126607;28;20566;-47
2022/05/23 05:41:36;;;;;;;6.63;3.03;;;;;;;24.50;43.67;100458.38;5116251;28;20497;-51
2022/05/23 05:44:14;;;;;;;5.95;2.85;;;;;;;24.74;43.39;100450.81;5125175;28;20862;-51
2022/05/23 05:46:51;;;;;;;8.57;3.40;;;;;;;24.80;43.07;100439.78;5131837;28;20510;-48
2022/05/23 05:49:29;;;;;;;7.88;3.15;;;;;;;24.67;43.29;100451.00;5112368;28;20500;-49
2022/05/23 05:52:03;;;;;;;5.57;3.22;;;;;;;24.41;43.29;100444.47;5106857;28;20455;-49
2022/05/23 05:54:36;;;;;;;12.02;4.00;;;;;;;24.45;43.45;100442.91;5108734;28;20417;-48
2022/05/23 05:57:11;;;;;;;11.13;4.03;;;;;;;24.28;43.37;100444.81;5104602;28;20563;-50
2022/05/23 05:59:44;;;;;;;7.47;3.75;;;;;;;24.42;43.17;100442.59;5112225;28;20897;-46
2022/05/23 06:02:16;;;;;;;15.50;4.05;;;;;;;24.68;42.64;100439.13;5110570;28;20423;-50
2022/05/23 06:04:50;;;;;;;12.95;3.60;;;;;;;24.85;42.37;100434.44;5113135;28;20433;-51
2022/05/23 06:13:18;;;;;;;12.13;4.25;;;;;;;26.52;40.42;100413.50;5095431;28;20429;-48
2022/05/23 06:15:50;;;;;;;7.97;3.40;;;;;;;27.19;39.80;100430.75;5148018;28;20421;-48
2022/05/23 06:18:22;;;;;;;8.48;3.35;;;;;;;27.47;39.36;100420.41;5099915;28;20419;-49
2022/05/23 06:20:56;;;;;;;9.43;3.22;;;;;;;27.58;39.02;100420.13;5154562;28;20499;-51
2022/05/23 06:23:29;;;;;;;11.02;3.72;;;;;;;27.48;39.13;100422.88;5168818;28;20419;-49
2022/05/23 06:26:02;;;;;;;13.03;3.57;;;;;;;27.30;38.95;100409.84;5164728;28;20777;-48
2022/05/23 06:28:36;;;;;;;9.80;3.30;;;;;;;26.95;39.14;100414.16;5173656;28;20846;-48
2022/05/23 06:31:08;;;;;;;11.02;3.67;;;;;;;26.63;39.32;100403.50;5167136;28;20463;-48
2022/05/23 06:33:41;;;;;;;9.25;3.60;;;;;;;26.48;39.44;100404.25;5162762;28;20452;-49
2022/05/23 06:36:16;;;;;;;7.65;3.30;;;;;;;26.01;39.65;100393.50;5170463;28;20415;-47
2022/05/23 06:38:48;;;;;;;7.33;3.97;;;;;;;25.63;39.77;100409.75;5168000;28;20428;-48
2022/05/23 06:41:21;;;;;;;9.27;4.27;;;;;;;25.17;40.40;100405.88;5163074;28;20618;-47
2022/05/23 06:43:53;;;;;;;10.75;3.83;;;;;;;24.70;40.63;100395.69;5166350;28;20497;-47
2022/05/23 06:46:26;;;;;;;9.90;4.25;;;;;;;24.28;40.84;100378.19;5167957;28;20492;-48
2022/05/23 06:48:59;;;;;;;11.02;4.85;;;;;;;24.18;40.98;100394.22;5162481;28;20477;-50
2022/05/23 06:51:33;;;;;;;7.57;3.93;;;;;;;23.95;41.17;100391.78;5149395;28;20802;-51
2022/05/23 06:54:05;;;;;;;13.38;4.03;;;;;;;23.87;41.15;100380.34;5156794;28;20420;-49
2022/05/23 06:56:38;;;;;;;10.38;4.32;;;;;;;23.80;41.23;100371.63;5166470;28;20432;-48
2022/05/23 06:59:11;;;;;;;10.68;4.53;;;;;;;23.66;41.10;100364.91;5169865;28;20942;-47
2022/05/23 07:01:44;;;;;;;15.80;4.55;;;;;;;23.57;41.42;100364.53;5188758;28;20403;-52
2022/05/23 07:04:17;;;;;;;11.83;5.07;;;;;;;23.44;41.45;100365.69;5167005;28;20416;-51
2022/05/23 07:12:30;;;;;;;9.32;4.90;;;;;;;23.33;41.44;100366.59;5164036;28;20425;-50
2022/05/23 07:15:03;;;;;;;9.43;4.40;;;;;;;23.35;41.61;100364.47;5164642;28;20433;-50
2022/05/23 07:17:36;;;;;;;11.10;4.70;;;;;;;23.23;41.58;100339.50;5159599;28;20505;-52
2022/05/23 07:20:11;;;;;;;9.13;4.28;;;;;;;23.15;41.85;100358.75;5167377;28;20415;-48
2022/05/23 07:22:44;;;;;;;10.07;4.90;;;;;;;22.94;41.90;100344.13;5164974;28;20486;-51
2022/05/23 07:25:17;;;;;;;11.88;5.20;;;;;;;23.02;42.16;100352.63;5164412;28;20465;-51
2022/05/23 07:27:50;;;;;;;10.45;4.63;;;;;;;23.12;42.17;100351.16;5164029;28;20478;-50
2022/05/23 07:30:22;;;;;;;12.82;5.00;;;;;;;23.17;42.12;100345.88;5155605;28;20481;-52
2022/05/23 07:32:55;;;;;;;7.78;4.38;;;;;;;23.46;41.81;100341.19;5163937;28;20429;-49
2022/05/23 07:35:28;;;;;;;9.60;4.78;;;;;;;24.15;41.50;100340.78;5151626;28;20423;-52
2022/05/23 07:38:01;;;;;;;12.23;5.05;;;;;;;24.84;40.76;100338.31;5161953;28;20452;-51
2022/05/23 07:40:34;;;;;;;14.25;5.00;;;;;;;24.87;40.46;100314.53;5164240;28;20485;-51
2022/05/23 07:43:06;;;;;;;11.90;5.05;;;;;;;25.05;40.42;100335.75;5163043;28;20530;-47
2022/05/23 07:45:39;;;;;;;12.45;4.93;;;;;;;24.84;40.48;100321.28;5157504;28;20466;-49
2022/05/23 07:48:11;;;;;;;9.18;4.95;;;;;;;24.91;40.47;100337.28;5164102;28;24240;-47
2022/05/23 07:50:45;;;;;;;13.70;5.57;;;;;;;24.92;40.38;100334.31;5165012;28;20415;-49
2022/05/23 08:01:48;;;;;;;12.98;4.90;;;;;;;24.65;40.46;100315.41;5167961;28;20417;-52
2022/05/23 08:04:21;;;;;;;21.87;6.20;;;;;;;24.73;40.53;100314.97;5167413;28;20560;-54
2022/05/23 08:06:54;;;;;;;11.23;5.35;;;;;;;24.61;40.66;100273.81;5151379;28;20777;-49
2022/05/23 08:09:28;;;;;;;11.73;5.25;;;;;;;24.98;40.28;100310.84;5147931;28;20865;-48
2022/05/23 08:12:25;;;;;;;10.27;5.20;;;;;;;25.02;40.35;100312.78;5146458;28;20857;-47
2022/05/23 08:14:59;;;;;;;12.15;5.55;;;;;;;25.10;40.06;100302.56;5135440;28;20429;-52
2022/05/23 08:17:32;;;;;;;13.40;5.10;;;;;;;25.16;39.98;100286.16;5166932;28;20440;-47
2022/05/23 08:20:06;;;;;;;10.83;5.10;;;;;;;25.36;39.86;100296.28;5168097;28;21053;-49
2022/05/23 08:22:39;;;;;;;12.02;5.32;;;;;;;25.49;39.70;100301.25;5168196;28;20425;-49
2022/05/23 08:25:13;;;;;;;11.05;5.47;;;;;;;25.59;39.54;100296.97;5165580;28;20514;-46
2022/05/23 08:27:46;;;;;;;11.85;5.00;;;;;;;25.57;39.56;100272.06;5167281;28;20486;-47
2022/05/23 08:30:18;;;;;;;14.85;6.43;;;;;;;25.65;39.49;100280.50;5157100;28;20993;-48
2022/05/23 08:32:51;;;;;;;17.27;6.28;;;;;;;25.51;39.41;100245.00;5166352;28;20427;-50
2022/05/23 08:35:24;;;;;;;13.35;5.70;;;;;;;25.75;39.42;100283.25;5164791;28;20897;-51
2022/05/23 08:37:58;;;;;;;10.35;5.03;;;;;;;25.56;39.45;100282.06;5166266;28;20496;-50
2022/05/23 08:40:48;;;;;;;13.60;6.00;;;;;;;25.28;39.97;100284.09;5166797;28;20427;-49
2022/05/23 08:43:30;;;;;;;12.00;5.22;;;;;;;25.09;40.01;100269.34;5166186;28;20420;-51
2022/05/23 08:46:04;;;;;;;17.17;5.35;;;;;;;24.98;39.85;100270.31;5165237;28;20444;-49
2022/05/23 08:48:48;;;;;;;15.68;5.80;;;;;;;25.13;40.00;100292.09;5157476;28;20932;-49
2022/05/23 08:51:31;;;;;;;17.85;6.35;;;;;;;25.05;39.96;100297.94;5155168;28;20432;-51
2022/05/23 08:54:16;;;;;;;13.43;6.18;;;;;;;25.16;39.96;100283.47;5163444;28;20877;-49
2022/05/23 08:56:55;;;;;;;24.60;5.77;;;;;;;25.29;39.63;100288.41;5166256;28;20507;-50
2022/05/23 08:59:31;;;;;;;14.85;6.28;;;;;;;25.56;39.72;100273.97;5163057;28;20826;-47
2022/05/23 09:02:09;;;;;;;19.50;7.32;;;;;;;25.87;39.35;100279.53;5158136;28;20887;-50
2022/05/23 09:04:48;;;;;;;11.90;6.28;;;;;;;26.01;39.21;100269.84;5156334;28;21283;-50
2022/05/23 09:07:28;;;;;;;10.90;6.07;;;;;;;26.01;39.34;100261.72;5151632;28;20481;-54
2022/05/23 09:10:06;;;;;;;10.77;5.38;;;;;;;25.83;39.53;100240.56;5151280;28;20432;-49
2022/05/23 09:12:41;;;;;;;12.82;5.93;;;;;;;26.01;39.52;100258.19;5149214;28;20437;-51
2022/05/23 09:15:13;;;;;;;9.80;5.60;;;;;;;25.95;39.85;100255.50;5153592;28;20417;-52
2022/05/23 09:17:47;;;;;;;14.40;5.60;;;;;;;25.66;40.13;100238.84;5165505;28;20400;-48
2022/05/23 09:20:33;;;;;;;12.68;6.40;;;;;;;25.35;40.37;100180.31;5162666;28;20483;-52
2022/05/23 09:23:10;;;;;;;13.68;6.35;;;;;;;25.72;40.09;100199.94;5157451;28;20926;-53
2022/05/23 09:25:42;;;;;;;13.83;6.60;;;;;;;26.30;39.80;100237.69;5148463;28;20421;-49
2022/05/23 09:28:23;;;;;;;11.38;6.60;;;;;;;26.49;39.59;100234.50;5160790;28;20477;-49
2022/05/23 09:31:01;;;;;;;11.63;6.23;;;;;;;26.49;39.67;100232.59;5151996;28;20479;-51
2022/05/23 09:33:42;;;;;;;10.10;6.55;;;;;;;26.57;39.60;100226.66;5158570;28;20473;-49
2022/05/23 09:36:21;;;;;;;12.98;7.10;;;;;;;26.17;39.65;100171.38;5159194;28;20987;-51
2022/05/23 09:38:57;;;;;;;14.18;6.30;;;;;;;26.59;39.62;100204.72;5159261;28;20771;-49
2022/05/23 09:50:36;;;;;;;13.10;7.28;;;;;;;25.92;40.38;100195.66;5153714;28;20418;-51
2022/05/23 09:53:24;;;;;;;14.05;6.72;;;;;;;25.80;40.52;100176.13;5157523;28;20528;-48
2022/05/23 09:56:28;;;;;;;15.65;7.47;;;;;;;25.93;40.32;100170.25;5149883;28;20418;-52
2022/05/23 09:59:04;;;;;;;14.33;7.23;;;;;;;26.11;40.25;100183.28;5147251;28;20489;-50
2022/05/23 10:01:38;;;;;;;10.88;6.40;;;;;;;25.90;40.09;100128.31;5156661;28;20862;-51
2022/05/23 10:04:16;;;;;;;11.80;6.87;;;;;;;26.27;40.01;100170.56;5154006;28;20458;-49
2022/05/23 10:06:50;;;;;;;13.07;7.53;;;;;;;26.49;39.74;100167.63;5153496;28;20417;-49
2022/05/23 10:09:31;;;;;;;13.70;7.10;;;;;;;26.63;39.50;100141.63;5159974;28;20512;-50
2022/05/23 10:12:08;;;;;;;14.00;8.57;;;;;;;26.76;39.51;100166.47;5156572;28;20466;-53
2022/05/23 10:14:53;;;;;;;17.07;8.60;;;;;;;26.24;39.96;100144.03;5157332;28;20422;-49
2022/05/23 10:17:29;;;;;;;14.25;7.90;;;;;;;26.32;39.98;100146.19;5152332;28;20768;-50
2022/05/23 10:20:37;;;;;;;23.05;9.35;;;;;;;26.46;39.90;100143.75;5151125;28;20925;-51
2022/05/23 10:23:17;;;;;;;19.30;9.00;;;;;;;26.60;39.62;100131.31;5152326;28;20768;-52
2022/05/23 10:26:00;;;;;;;14.40;8.27;;;;;;;26.82;39.50;100138.28;5153796;28;20418;-52
2022/05/23 10:28:47;;;;;;;20.02;8.50;;;;;;;26.88;39.37;100142.63;5150954;28;20866;-48
2022/05/23 10:31:27;;;;;;;16.38;8.05;;;;;;;27.06;39.21;100138.50;5153645;28;20418;-49
2022/05/23 10:34:06;;;;;;;14.30;8.40;;;;;;;27.01;39.30;100135.84;5148869;28;20468;-49
2022/05/23 10:37:08;;;;;;;15.70;8.43;;;;;;;26.92;39.39;100130.16;5153735;28;20415;-49
2022/05/23 10:42:41;;;;;;;15.02;8.50;;;;;;;26.80;39.50;100124.22;5148326;28;20401;-48
2022/05/23 10:45:28;;;;;;;18.48;8.27;;;;;;;26.88;39.44;100121.78;5155674;28;20444;-49
2022/05/23 10:48:30;;;;;;;17.05;8.15;;;;;;;27.00;39.13;100129.56;5158781;28;20425;-53
2022/05/23 10:51:18;;;;;;;15.50;8.57;;;;;;;26.92;39.37;100099.56;5164244;28;20440;-53
2022/05/23 10:54:03;;;;;;;15.23;9.43;;;;;;;26.79;39.48;100111.75;5160899;28;20424;-54
2022/05/23 10:56:58;;;;;;;15.85;8.48;;;;;;;26.50;39.74;100079.88;5160696;28;20409;-48
2022/05/23 10:59:41;;;;;;;17.75;9.85;;;;;;;26.44;39.90;100095.28;5158872;28;20440;-47
2022/05/23 11:02:31;;;;;;;19.13;10.05;;;;;;;26.17;39.97;100076.66;5158128;28;20776;-47
2022/05/23 11:05:16;;;;;;;18.20;8.48;;;;;;;25.87;40.52;100068.53;5161133;28;20476;-46
2022/05/23 11:08:26;;;;;;;16.90;8.57;;;;;;;25.93;40.44;100079.09;5157322;28;20479;-48
2022/05/23 11:11:08;;;;;;;18.58;9.40;;;;;;;25.87;40.38;100063.13;5154357;28;20423;-46
2022/05/23 11:14:00;;;;;;;20.50;10.73;;;;;;;25.44;40.47;100003.84;5164082;28;20472;-47
2022/05/23 11:16:44;;;;;;;15.93;10.10;;;;;;;25.73;40.69;100079.03;5159551;28;20492;-50
2022/05/23 11:19:29;;;;;;;12.65;8.98;;;;;;;25.33;41.11;100026.50;5160333;28;20979;-47
2022/05/23 11:22:08;;;;;;;16.05;10.07;;;;;;;25.38;41.25;100047.34;5158571;28;20427;-48
2022/05/23 11:24:55;;;;;;;19.57;10.10;;;;;;;25.36;41.08;100038.69;5165253;28;20448;-48
2022/05/23 11:36:15;;;;;;;17.90;10.50;;;;;;;25.34;41.80;100038.16;5158749;28;20544;-48
2022/05/23 11:38:48;;;;;;;17.50;10.48;;;;;;;25.27;41.87;100044.63;5167229;28;20750;-47
2022/05/23 11:41:39;;;;;;;19.40;11.57;;;;;;;24.93;42.26;100032.56;5158695;28;20499;-48
2022/05/23 11:48:50;;;;;;;20.23;10.43;;;;;;;24.60;42.81;100029.22;5163386;28;20445;-48
2022/05/23 11:51:40;;;;;;;16.52;10.40;;;;;;;24.39;42.58;99963.47;5159022;28;20897;-46
2022/05/23 11:54:37;;;;;;;14.32;10.20;;;;;;;24.76;42.35;99998.50;5163444;28;20599;-45
2022/05/23 11:57:36;;;;;;;20.20;9.98;;;;;;;25.03;42.46;100016.44;5161117;28;20497;-50
2022/05/23 12:00:35;;;;;;;17.85;10.02;;;;;;;25.04;42.41;100018.03;5153590;28;20424;-48
2022/05/23 12:03:16;;;;;;;17.95;10.88;;;;;;;24.91;42.61;100008.56;5162588;28;20499;-49
2022/05/23 12:06:17;;;;;;;16.05;10.15;;;;;;;24.92;42.73;100006.66;5164892;28;20426;-49
2022/05/23 12:09:03;;;;;;;16.33;9.45;;;;;;;24.91;42.69;99994.25;5162433;28;20887;-48
2022/05/23 12:11:38;;;;;;;17.52;9.98;;;;;;;25.22;42.51;99993.25;5163280;28;20437;-51
2022/05/23 12:14:20;;;;;;;14.75;10.55;;;;;;;25.33;42.50;99982.47;5163575;28;20496;-48
2022/05/23 12:17:10;;;;;;;13.37;8.77;;;;;;;25.44;42.47;99971.41;5162112;28;20400;-47
2022/05/23 12:19:55;;;;;;;16.58;9.00;;;;;;;25.67;42.27;99970.03;5162720;28;20424;-49
2022/05/23 12:22:33;;;;;;;11.63;8.90;;;;;;;25.96;41.92;99958.69;5160467;28;20521;-48
2022/05/23 12:25:28;;;;;;;12.53;8.30;;;;;;;26.17;41.71;99954.88;5161546;28;20789;-50
2022/05/23 12:28:20;;;;;;;16.85;9.25;;;;;;;26.45;41.33;99952.63;5147484;28;20640;-48
2022/05/23 12:31:16;;;;;;;15.55;8.57;;;;;;;26.57;41.29;99952.31;5161769;28;20508;-44
2022/05/23 12:33:54;;;;;;;13.27;8.43;;;;;;;26.31;41.67;99949.66;5160616;28;20496;-49
2022/05/23 12:36:28;;;;;;;13.50;9.07;;;;;;;26.17;41.86;99944.03;5158767;28;20516;-51
2022/05/23 12:39:48;;;;;;;17.00;9.50;;;;;;;26.10;41.87;99948.91;5159783;28;20795;-49
2022/05/23 12:42:35;;;;;;;13.20;7.53;;;;;;;26.07;41.77;99908.88;5148751;28;20413;-57
2022/05/23 12:45:46;;;;;;;12.90;8.50;;;;;;;26.49;41.40;99929.34;5155117;28;20789;-54
2022/05/23 12:48:49;;;;;;;15.73;8.07;;;;;;;26.33;41.63;99927.75;5152158;28;20438;-53
2022/05/23 12:51:37;;;;;;;12.88;7.55;;;;;;;26.41;41.49;99927.97;5151127;28;20840;-56
2022/05/23 12:54:50;;;;;;;13.93;8.30;;;;;;;26.43;41.44;99925.00;5152353;28;20915;-58
2022/05/23 12:57:58;;;;;;;15.07;7.90;;;;;;;26.35;41.43;99914.72;5146979;28;20464;-45
2022/05/23 13:00:35;;;;;;;16.13;7.88;;;;;;;26.40;41.29;99917.44;5152915;28;20422;-48
2022/05/23 13:03:18;;;;;;;11.93;7.72;;;;;;;26.46;41.18;99910.91;5153113;28;20504;-50
2022/05/23 13:05:58;;;;;;;14.18;8.35;;;;;;;26.35;41.24;99914.72;5154250;28;20425;-51
2022/05/23 13:08:41;;;;;;;15.02;9.13;;;;;;;26.17;41.21;99916.97;5152167;28;20413;-50
2022/05/23 13:11:22;;;;;;;15.75;9.20;;;;;;;26.16;41.49;99909.94;5160174;28;20425;-51
2022/05/23 13:13:59;;;;;;;14.25;9.05;;;;;;;26.00;41.52;99908.34;5157959;28;20509;-46
2022/05/23 13:16:36;;;;;;;22.00;8.98;;;;;;;26.11;41.47;99915.38;5160585;28;20440;-47